<?xml version="1.0" encoding="UTF-8"?>
<gpx xmlns="http://www.topografix.com/GPX/1/1" xmlns:xsi="http://www.w3.org/2001/XMLSchema-instance" version="1.1" xsi:schemaLocation="http://www.topografix.com/GPX/1/1 http://www.topografix.com/GPX/1/1/gpx.xsd">
  <metadata>
    <name>1066 Triathlon - Sprint Aquabike</name>
  </metadata>
  <trk>
    <name>1066 Triathlon - Sprint Aquabike</name>
    <trkseg>
      <trkpt lat="50.837968" lon="0.475959">
        <ele>7.707959</ele>
        <time>2026-07-26T07:30:00.000Z</time>
      </trkpt>
      <trkpt lat="50.837942" lon="0.475638">
        <ele>7.707963</ele>
        <time>2026-07-26T07:30:02.000Z</time>
      </trkpt>
      <trkpt lat="50.837868" lon="0.475103">
        <ele>7.707954</ele>
        <time>2026-07-26T07:30:06.000Z</time>
      </trkpt>
      <trkpt lat="50.837832" lon="0.474794">
        <ele>7.707957</ele>
        <time>2026-07-26T07:30:08.000Z</time>
      </trkpt>
      <trkpt lat="50.837807" lon="0.474702">
        <ele>7.707957</ele>
        <time>2026-07-26T07:30:09.000Z</time>
      </trkpt>
      <trkpt lat="50.837788" lon="0.474218">
        <ele>7.856493</ele>
        <time>2026-07-26T07:30:12.000Z</time>
      </trkpt>
      <trkpt lat="50.837777" lon="0.474079">
        <ele>7.913092</ele>
        <time>2026-07-26T07:30:13.000Z</time>
      </trkpt>
      <trkpt lat="50.837792" lon="0.473781">
        <ele>8.040813</ele>
        <time>2026-07-26T07:30:15.000Z</time>
      </trkpt>
      <trkpt lat="50.83782" lon="0.473539">
        <ele>8.146857</ele>
        <time>2026-07-26T07:30:17.000Z</time>
      </trkpt>
      <trkpt lat="50.837852" lon="0.473149">
        <ele>8.314344</ele>
        <time>2026-07-26T07:30:20.000Z</time>
      </trkpt>
      <trkpt lat="50.83786" lon="0.472627">
        <ele>8.537692</ele>
        <time>2026-07-26T07:30:24.000Z</time>
      </trkpt>
      <trkpt lat="50.837851" lon="0.472491">
        <ele>8.600682</ele>
        <time>2026-07-26T07:30:25.000Z</time>
      </trkpt>
      <trkpt lat="50.837852" lon="0.47229">
        <ele>8.684682</ele>
        <time>2026-07-26T07:30:26.000Z</time>
      </trkpt>
      <trkpt lat="50.83785" lon="0.471749">
        <ele>8.916491</ele>
        <time>2026-07-26T07:30:30.000Z</time>
      </trkpt>
      <trkpt lat="50.837869" lon="0.471602">
        <ele>8.765289</ele>
        <time>2026-07-26T07:30:31.000Z</time>
      </trkpt>
      <trkpt lat="50.837864" lon="0.471221">
        <ele>8.209965</ele>
        <time>2026-07-26T07:30:34.000Z</time>
      </trkpt>
      <trkpt lat="50.837863" lon="0.471091">
        <ele>8.006301</ele>
        <time>2026-07-26T07:30:35.000Z</time>
      </trkpt>
      <trkpt lat="50.837863" lon="0.47072">
        <ele>7.474406</ele>
        <time>2026-07-26T07:30:38.000Z</time>
      </trkpt>
      <trkpt lat="50.837869" lon="0.470699">
        <ele>7.430393</ele>
        <time>2026-07-26T07:30:38.000Z</time>
      </trkpt>
      <trkpt lat="50.837832" lon="0.470418">
        <ele>7.007941</ele>
        <time>2026-07-26T07:30:40.000Z</time>
      </trkpt>
      <trkpt lat="50.837804" lon="0.470356">
        <ele>6.897859</ele>
        <time>2026-07-26T07:30:41.000Z</time>
      </trkpt>
      <trkpt lat="50.837772" lon="0.470336">
        <ele>6.815091</ele>
        <time>2026-07-26T07:30:41.000Z</time>
      </trkpt>
      <trkpt lat="50.837611" lon="0.470152">
        <ele>6.363577</ele>
        <time>2026-07-26T07:30:43.000Z</time>
      </trkpt>
      <trkpt lat="50.837495" lon="0.470045">
        <ele>6.061869</ele>
        <time>2026-07-26T07:30:44.000Z</time>
      </trkpt>
      <trkpt lat="50.837276" lon="0.469774">
        <ele>5.388955</ele>
        <time>2026-07-26T07:30:47.000Z</time>
      </trkpt>
      <trkpt lat="50.837052" lon="0.469341">
        <ele>4.674127</ele>
        <time>2026-07-26T07:30:51.000Z</time>
      </trkpt>
      <trkpt lat="50.836866" lon="0.468797">
        <ele>4.246951</ele>
        <time>2026-07-26T07:30:55.000Z</time>
      </trkpt>
      <trkpt lat="50.836791" lon="0.468372">
        <ele>3.927905</ele>
        <time>2026-07-26T07:30:58.000Z</time>
      </trkpt>
      <trkpt lat="50.836758" lon="0.467929">
        <ele>3.617875</ele>
        <time>2026-07-26T07:31:01.000Z</time>
      </trkpt>
      <trkpt lat="50.836615" lon="0.466329">
        <ele>2.817304</ele>
        <time>2026-07-26T07:31:12.000Z</time>
      </trkpt>
      <trkpt lat="50.836593" lon="0.466192">
        <ele>2.834359</ele>
        <time>2026-07-26T07:31:13.000Z</time>
      </trkpt>
      <trkpt lat="50.836569" lon="0.465828">
        <ele>2.880164</ele>
        <time>2026-07-26T07:31:16.000Z</time>
      </trkpt>
      <trkpt lat="50.836557" lon="0.465663">
        <ele>2.899406</ele>
        <time>2026-07-26T07:31:17.000Z</time>
      </trkpt>
      <trkpt lat="50.836379" lon="0.463883">
        <ele>3.119275</ele>
        <time>2026-07-26T07:31:30.000Z</time>
      </trkpt>
      <trkpt lat="50.836293" lon="0.463014">
        <ele>3.107134</ele>
        <time>2026-07-26T07:31:36.000Z</time>
      </trkpt>
      <trkpt lat="50.83624" lon="0.462442">
        <ele>3.09916</ele>
        <time>2026-07-26T07:31:40.000Z</time>
      </trkpt>
      <trkpt lat="50.836093" lon="0.460954">
        <ele>3.119779</ele>
        <time>2026-07-26T07:31:51.000Z</time>
      </trkpt>
      <trkpt lat="50.835981" lon="0.459738">
        <ele>3.502592</ele>
        <time>2026-07-26T07:32:00.000Z</time>
      </trkpt>
      <trkpt lat="50.835893" lon="0.458853">
        <ele>3.779011</ele>
        <time>2026-07-26T07:32:06.000Z</time>
      </trkpt>
      <trkpt lat="50.83587" lon="0.458629">
        <ele>3.847765</ele>
        <time>2026-07-26T07:32:08.000Z</time>
      </trkpt>
      <trkpt lat="50.835729" lon="0.457144">
        <ele>5.372076</ele>
        <time>2026-07-26T07:32:19.000Z</time>
      </trkpt>
      <trkpt lat="50.835681" lon="0.456654">
        <ele>6.00722</ele>
        <time>2026-07-26T07:32:22.000Z</time>
      </trkpt>
      <trkpt lat="50.835693" lon="0.456409">
        <ele>6.296334</ele>
        <time>2026-07-26T07:32:24.000Z</time>
      </trkpt>
      <trkpt lat="50.835696" lon="0.456182">
        <ele>6.577714</ele>
        <time>2026-07-26T07:32:26.000Z</time>
      </trkpt>
      <trkpt lat="50.835837" lon="0.455733">
        <ele>7.216603</ele>
        <time>2026-07-26T07:32:30.000Z</time>
      </trkpt>
      <trkpt lat="50.835732" lon="0.455569">
        <ele>7.501911</ele>
        <time>2026-07-26T07:32:32.000Z</time>
      </trkpt>
      <trkpt lat="50.835726" lon="0.455481">
        <ele>7.625645</ele>
        <time>2026-07-26T07:32:33.000Z</time>
      </trkpt>
      <trkpt lat="50.835736" lon="0.45489">
        <ele>8.309492</ele>
        <time>2026-07-26T07:32:37.000Z</time>
      </trkpt>
      <trkpt lat="50.835668" lon="0.453515">
        <ele>9.940319</ele>
        <time>2026-07-26T07:32:47.000Z</time>
      </trkpt>
      <trkpt lat="50.83568" lon="0.452178">
        <ele>11.128498</ele>
        <time>2026-07-26T07:32:56.000Z</time>
      </trkpt>
      <trkpt lat="50.835656" lon="0.451325">
        <ele>11.557435</ele>
        <time>2026-07-26T07:33:02.000Z</time>
      </trkpt>
      <trkpt lat="50.835619" lon="0.450624">
        <ele>11.902097</ele>
        <time>2026-07-26T07:33:07.000Z</time>
      </trkpt>
      <trkpt lat="50.835334" lon="0.448409">
        <ele>11.872923</ele>
        <time>2026-07-26T07:33:23.000Z</time>
      </trkpt>
      <trkpt lat="50.835282" lon="0.447779">
        <ele>11.711457</ele>
        <time>2026-07-26T07:33:27.000Z</time>
      </trkpt>
      <trkpt lat="50.835292" lon="0.447201">
        <ele>11.562694</ele>
        <time>2026-07-26T07:33:31.000Z</time>
      </trkpt>
      <trkpt lat="50.83534" lon="0.446672">
        <ele>11.379532</ele>
        <time>2026-07-26T07:33:35.000Z</time>
      </trkpt>
      <trkpt lat="50.835442" lon="0.446209">
        <ele>11.199514</ele>
        <time>2026-07-26T07:33:38.000Z</time>
      </trkpt>
      <trkpt lat="50.835589" lon="0.445832">
        <ele>11.034388</ele>
        <time>2026-07-26T07:33:41.000Z</time>
      </trkpt>
      <trkpt lat="50.83562" lon="0.445755">
        <ele>10.99859</ele>
        <time>2026-07-26T07:33:42.000Z</time>
      </trkpt>
      <trkpt lat="50.835717" lon="0.445528">
        <ele>10.895978</ele>
        <time>2026-07-26T07:33:44.000Z</time>
      </trkpt>
      <trkpt lat="50.835868" lon="0.44532">
        <ele>10.780429</ele>
        <time>2026-07-26T07:33:46.000Z</time>
      </trkpt>
      <trkpt lat="50.836092" lon="0.445188">
        <ele>10.642336</ele>
        <time>2026-07-26T07:33:49.000Z</time>
      </trkpt>
      <trkpt lat="50.836475" lon="0.445147">
        <ele>10.480698</ele>
        <time>2026-07-26T07:33:53.000Z</time>
      </trkpt>
      <trkpt lat="50.836417" lon="0.444761">
        <ele>10.489018</ele>
        <time>2026-07-26T07:33:56.000Z</time>
      </trkpt>
      <trkpt lat="50.836251" lon="0.443916">
        <ele>10.507195</ele>
        <time>2026-07-26T07:34:02.000Z</time>
      </trkpt>
      <trkpt lat="50.835095" lon="0.438106">
        <ele>10.76596</ele>
        <time>2026-07-26T07:34:45.000Z</time>
      </trkpt>
      <trkpt lat="50.834057" lon="0.432824">
        <ele>9.455974</ele>
        <time>2026-07-26T07:35:24.000Z</time>
      </trkpt>
      <trkpt lat="50.833977" lon="0.432437">
        <ele>9.3215</ele>
        <time>2026-07-26T07:35:27.000Z</time>
      </trkpt>
      <trkpt lat="50.833708" lon="0.43107">
        <ele>8.510373</ele>
        <time>2026-07-26T07:35:37.000Z</time>
      </trkpt>
      <trkpt lat="50.833688" lon="0.43093">
        <ele>8.389332</ele>
        <time>2026-07-26T07:35:38.000Z</time>
      </trkpt>
      <trkpt lat="50.83365" lon="0.430724">
        <ele>8.222399</ele>
        <time>2026-07-26T07:35:40.000Z</time>
      </trkpt>
      <trkpt lat="50.833566" lon="0.430274">
        <ele>7.846514</ele>
        <time>2026-07-26T07:35:43.000Z</time>
      </trkpt>
      <trkpt lat="50.833398" lon="0.429439">
        <ele>7.132884</ele>
        <time>2026-07-26T07:35:49.000Z</time>
      </trkpt>
      <trkpt lat="50.833338" lon="0.429297">
        <ele>7.001628</ele>
        <time>2026-07-26T07:35:50.000Z</time>
      </trkpt>
      <trkpt lat="50.832972" lon="0.428821">
        <ele>6.497183</ele>
        <time>2026-07-26T07:35:55.000Z</time>
      </trkpt>
      <trkpt lat="50.832894" lon="0.428593">
        <ele>6.349251</ele>
        <time>2026-07-26T07:35:57.000Z</time>
      </trkpt>
      <trkpt lat="50.832783" lon="0.427965">
        <ele>5.958605</ele>
        <time>2026-07-26T07:36:02.000Z</time>
      </trkpt>
      <trkpt lat="50.83272" lon="0.427698">
        <ele>5.801709</ele>
        <time>2026-07-26T07:36:04.000Z</time>
      </trkpt>
      <trkpt lat="50.832692" lon="0.427555">
        <ele>5.712258</ele>
        <time>2026-07-26T07:36:05.000Z</time>
      </trkpt>
      <trkpt lat="50.832722" lon="0.427417">
        <ele>5.630887</ele>
        <time>2026-07-26T07:36:06.000Z</time>
      </trkpt>
      <trkpt lat="50.832775" lon="0.427349">
        <ele>5.573728</ele>
        <time>2026-07-26T07:36:07.000Z</time>
      </trkpt>
      <trkpt lat="50.832827" lon="0.42735">
        <ele>5.523691</ele>
        <time>2026-07-26T07:36:08.000Z</time>
      </trkpt>
      <trkpt lat="50.832868" lon="0.427355">
        <ele>5.476138</ele>
        <time>2026-07-26T07:36:08.000Z</time>
      </trkpt>
      <trkpt lat="50.833287" lon="0.427481">
        <ele>5.109274</ele>
        <time>2026-07-26T07:36:13.000Z</time>
      </trkpt>
      <trkpt lat="50.833307" lon="0.427292">
        <ele>5.125329</ele>
        <time>2026-07-26T07:36:14.000Z</time>
      </trkpt>
      <trkpt lat="50.833287" lon="0.427133">
        <ele>5.140012</ele>
        <time>2026-07-26T07:36:15.000Z</time>
      </trkpt>
      <trkpt lat="50.833122" lon="0.426326">
        <ele>5.21423</ele>
        <time>2026-07-26T07:36:21.000Z</time>
      </trkpt>
      <trkpt lat="50.832844" lon="0.42457">
        <ele>5.28213</ele>
        <time>2026-07-26T07:36:34.000Z</time>
      </trkpt>
      <trkpt lat="50.832557" lon="0.423334">
        <ele>4.820726</ele>
        <time>2026-07-26T07:36:43.000Z</time>
      </trkpt>
      <trkpt lat="50.831822" lon="0.419421">
        <ele>2.475426</ele>
        <time>2026-07-26T07:37:12.000Z</time>
      </trkpt>
      <trkpt lat="50.831616" lon="0.418374">
        <ele>2.07401</ele>
        <time>2026-07-26T07:37:20.000Z</time>
      </trkpt>
      <trkpt lat="50.83098" lon="0.415328">
        <ele>1.392958</ele>
        <time>2026-07-26T07:37:43.000Z</time>
      </trkpt>
      <trkpt lat="50.830706" lon="0.413869">
        <ele>1.329699</ele>
        <time>2026-07-26T07:37:54.000Z</time>
      </trkpt>
      <trkpt lat="50.830312" lon="0.411958">
        <ele>1.517901</ele>
        <time>2026-07-26T07:38:08.000Z</time>
      </trkpt>
      <trkpt lat="50.830088" lon="0.410691">
        <ele>1.498468</ele>
        <time>2026-07-26T07:38:17.000Z</time>
      </trkpt>
      <trkpt lat="50.83005" lon="0.410489">
        <ele>1.460892</ele>
        <time>2026-07-26T07:38:18.000Z</time>
      </trkpt>
      <trkpt lat="50.829471" lon="0.40883">
        <ele>1.113705</ele>
        <time>2026-07-26T07:38:31.000Z</time>
      </trkpt>
      <trkpt lat="50.82909" lon="0.407469">
        <ele>1.018541</ele>
        <time>2026-07-26T07:38:41.000Z</time>
      </trkpt>
      <trkpt lat="50.829031" lon="0.407127">
        <ele>1.004388</ele>
        <time>2026-07-26T07:38:43.000Z</time>
      </trkpt>
      <trkpt lat="50.829032" lon="0.406935">
        <ele>0.997011</ele>
        <time>2026-07-26T07:38:44.000Z</time>
      </trkpt>
      <trkpt lat="50.829064" lon="0.40679">
        <ele>0.990229</ele>
        <time>2026-07-26T07:38:45.000Z</time>
      </trkpt>
      <trkpt lat="50.829291" lon="0.406163">
        <ele>0.960812</ele>
        <time>2026-07-26T07:38:50.000Z</time>
      </trkpt>
      <trkpt lat="50.829329" lon="0.406118">
        <ele>0.958446</ele>
        <time>2026-07-26T07:38:51.000Z</time>
      </trkpt>
      <trkpt lat="50.829666" lon="0.405474">
        <ele>1.065904</ele>
        <time>2026-07-26T07:38:57.000Z</time>
      </trkpt>
      <trkpt lat="50.830049" lon="0.404883">
        <ele>1.193925</ele>
        <time>2026-07-26T07:39:03.000Z</time>
      </trkpt>
      <trkpt lat="50.830211" lon="0.404522">
        <ele>1.259255</ele>
        <time>2026-07-26T07:39:06.000Z</time>
      </trkpt>
      <trkpt lat="50.830327" lon="0.403896">
        <ele>1.358378</ele>
        <time>2026-07-26T07:39:11.000Z</time>
      </trkpt>
      <trkpt lat="50.830395" lon="0.40368">
        <ele>1.378954</ele>
        <time>2026-07-26T07:39:13.000Z</time>
      </trkpt>
      <trkpt lat="50.830755" lon="0.402785">
        <ele>1.359319</ele>
        <time>2026-07-26T07:39:20.000Z</time>
      </trkpt>
      <trkpt lat="50.830841" lon="0.402442">
        <ele>1.352359</ele>
        <time>2026-07-26T07:39:23.000Z</time>
      </trkpt>
      <trkpt lat="50.830878" lon="0.402095">
        <ele>1.345908</ele>
        <time>2026-07-26T07:39:25.000Z</time>
      </trkpt>
      <trkpt lat="50.830894" lon="0.401191">
        <ele>1.328912</ele>
        <time>2026-07-26T07:39:31.000Z</time>
      </trkpt>
      <trkpt lat="50.830962" lon="0.400085">
        <ele>1.293377</ele>
        <time>2026-07-26T07:39:39.000Z</time>
      </trkpt>
      <trkpt lat="50.830981" lon="0.399131">
        <ele>1.262086</ele>
        <time>2026-07-26T07:39:46.000Z</time>
      </trkpt>
      <trkpt lat="50.831096" lon="0.397755">
        <ele>1.22939</ele>
        <time>2026-07-26T07:39:56.000Z</time>
      </trkpt>
      <trkpt lat="50.831127" lon="0.396989">
        <ele>1.222374</ele>
        <time>2026-07-26T07:40:01.000Z</time>
      </trkpt>
      <trkpt lat="50.831258" lon="0.396516">
        <ele>1.217488</ele>
        <time>2026-07-26T07:40:05.000Z</time>
      </trkpt>
      <trkpt lat="50.83127" lon="0.396308">
        <ele>1.215511</ele>
        <time>2026-07-26T07:40:06.000Z</time>
      </trkpt>
      <trkpt lat="50.831235" lon="0.396125">
        <ele>1.213799</ele>
        <time>2026-07-26T07:40:07.000Z</time>
      </trkpt>
      <trkpt lat="50.831111" lon="0.395765">
        <ele>1.210033</ele>
        <time>2026-07-26T07:40:10.000Z</time>
      </trkpt>
      <trkpt lat="50.830972" lon="0.395441">
        <ele>1.177576</ele>
        <time>2026-07-26T07:40:13.000Z</time>
      </trkpt>
      <trkpt lat="50.829996" lon="0.393976">
        <ele>0.834238</ele>
        <time>2026-07-26T07:40:28.000Z</time>
      </trkpt>
      <trkpt lat="50.829941" lon="0.393948">
        <ele>0.819813</ele>
        <time>2026-07-26T07:40:29.000Z</time>
      </trkpt>
      <trkpt lat="50.829817" lon="0.393906">
        <ele>0.784201</ele>
        <time>2026-07-26T07:40:30.000Z</time>
      </trkpt>
      <trkpt lat="50.829629" lon="0.393585">
        <ele>0.753288</ele>
        <time>2026-07-26T07:40:33.000Z</time>
      </trkpt>
      <trkpt lat="50.829529" lon="0.3934">
        <ele>0.763061</ele>
        <time>2026-07-26T07:40:35.000Z</time>
      </trkpt>
      <trkpt lat="50.829475" lon="0.393326">
        <ele>0.767589</ele>
        <time>2026-07-26T07:40:36.000Z</time>
      </trkpt>
      <trkpt lat="50.829461" lon="0.393307">
        <ele>0.768898</ele>
        <time>2026-07-26T07:40:36.000Z</time>
      </trkpt>
      <trkpt lat="50.828958" lon="0.392532">
        <ele>0.816389</ele>
        <time>2026-07-26T07:40:44.000Z</time>
      </trkpt>
      <trkpt lat="50.827698" lon="0.390737">
        <ele>0.821383</ele>
        <time>2026-07-26T07:41:03.000Z</time>
      </trkpt>
      <trkpt lat="50.827075" lon="0.389808">
        <ele>0.787939</ele>
        <time>2026-07-26T07:41:13.000Z</time>
      </trkpt>
      <trkpt lat="50.826892" lon="0.38949">
        <ele>0.879839</ele>
        <time>2026-07-26T07:41:16.000Z</time>
      </trkpt>
      <trkpt lat="50.826783" lon="0.389111">
        <ele>0.973347</ele>
        <time>2026-07-26T07:41:19.000Z</time>
      </trkpt>
      <trkpt lat="50.826222" lon="0.384097">
        <ele>2.271485</ele>
        <time>2026-07-26T07:41:55.000Z</time>
      </trkpt>
      <trkpt lat="50.826049" lon="0.382793">
        <ele>2.745793</ele>
        <time>2026-07-26T07:42:04.000Z</time>
      </trkpt>
      <trkpt lat="50.825791" lon="0.380259">
        <ele>3.17531</ele>
        <time>2026-07-26T07:42:22.000Z</time>
      </trkpt>
      <trkpt lat="50.825808" lon="0.379904">
        <ele>3.172348</ele>
        <time>2026-07-26T07:42:25.000Z</time>
      </trkpt>
      <trkpt lat="50.825841" lon="0.378798">
        <ele>3.163217</ele>
        <time>2026-07-26T07:42:33.000Z</time>
      </trkpt>
      <trkpt lat="50.825958" lon="0.376846">
        <ele>1.906225</ele>
        <time>2026-07-26T07:42:47.000Z</time>
      </trkpt>
      <trkpt lat="50.82596" lon="0.376084">
        <ele>1.405797</ele>
        <time>2026-07-26T07:42:52.000Z</time>
      </trkpt>
      <trkpt lat="50.825882" lon="0.375448">
        <ele>1.132489</ele>
        <time>2026-07-26T07:42:57.000Z</time>
      </trkpt>
      <trkpt lat="50.825655" lon="0.373813">
        <ele>0.595143</ele>
        <time>2026-07-26T07:43:09.000Z</time>
      </trkpt>
      <trkpt lat="50.825665" lon="0.37343">
        <ele>0.468044</ele>
        <time>2026-07-26T07:43:12.000Z</time>
      </trkpt>
      <trkpt lat="50.825791" lon="0.372769">
        <ele>0.333582</ele>
        <time>2026-07-26T07:43:17.000Z</time>
      </trkpt>
      <trkpt lat="50.825908" lon="0.372409">
        <ele>0.301693</ele>
        <time>2026-07-26T07:43:20.000Z</time>
      </trkpt>
      <trkpt lat="50.826272" lon="0.371545">
        <ele>0.221139</ele>
        <time>2026-07-26T07:43:27.000Z</time>
      </trkpt>
      <trkpt lat="50.826347" lon="0.371286">
        <ele>0.198602</ele>
        <time>2026-07-26T07:43:29.000Z</time>
      </trkpt>
      <trkpt lat="50.826352" lon="0.371099">
        <ele>0.18363</ele>
        <time>2026-07-26T07:43:30.000Z</time>
      </trkpt>
      <trkpt lat="50.826328" lon="0.370934">
        <ele>0.170102</ele>
        <time>2026-07-26T07:43:31.000Z</time>
      </trkpt>
      <trkpt lat="50.826261" lon="0.370719">
        <ele>0.15114</ele>
        <time>2026-07-26T07:43:33.000Z</time>
      </trkpt>
      <trkpt lat="50.825721" lon="0.369725">
        <ele>0.269703</ele>
        <time>2026-07-26T07:43:42.000Z</time>
      </trkpt>
      <trkpt lat="50.824823" lon="0.367749">
        <ele>0.439927</ele>
        <time>2026-07-26T07:43:59.000Z</time>
      </trkpt>
      <trkpt lat="50.824543" lon="0.366581">
        <ele>0.409204</ele>
        <time>2026-07-26T07:44:08.000Z</time>
      </trkpt>
      <trkpt lat="50.824411" lon="0.366134">
        <ele>0.396974</ele>
        <time>2026-07-26T07:44:11.000Z</time>
      </trkpt>
      <trkpt lat="50.824094" lon="0.365306">
        <ele>0.447108</ele>
        <time>2026-07-26T07:44:18.000Z</time>
      </trkpt>
      <trkpt lat="50.824019" lon="0.365037">
        <ele>0.475005</ele>
        <time>2026-07-26T07:44:20.000Z</time>
      </trkpt>
      <trkpt lat="50.82397" lon="0.364711">
        <ele>0.508974</ele>
        <time>2026-07-26T07:44:22.000Z</time>
      </trkpt>
      <trkpt lat="50.823896" lon="0.364124">
        <ele>0.566865</ele>
        <time>2026-07-26T07:44:26.000Z</time>
      </trkpt>
      <trkpt lat="50.823824" lon="0.363009">
        <ele>0.675799</ele>
        <time>2026-07-26T07:44:34.000Z</time>
      </trkpt>
      <trkpt lat="50.823749" lon="0.362722">
        <ele>0.704769</ele>
        <time>2026-07-26T07:44:36.000Z</time>
      </trkpt>
      <trkpt lat="50.823586" lon="0.362363">
        <ele>0.745878</ele>
        <time>2026-07-26T07:44:39.000Z</time>
      </trkpt>
      <trkpt lat="50.823081" lon="0.361422">
        <ele>0.862068</ele>
        <time>2026-07-26T07:44:48.000Z</time>
      </trkpt>
      <trkpt lat="50.822635" lon="0.360912">
        <ele>0.926233</ele>
        <time>2026-07-26T07:44:54.000Z</time>
      </trkpt>
      <trkpt lat="50.822279" lon="0.360351">
        <ele>0.881226</ele>
        <time>2026-07-26T07:45:00.000Z</time>
      </trkpt>
      <trkpt lat="50.821971" lon="0.359728">
        <ele>0.837213</ele>
        <time>2026-07-26T07:45:06.000Z</time>
      </trkpt>
      <trkpt lat="50.821668" lon="0.359003">
        <ele>0.787686</ele>
        <time>2026-07-26T07:45:12.000Z</time>
      </trkpt>
      <trkpt lat="50.821552" lon="0.358623">
        <ele>0.759479</ele>
        <time>2026-07-26T07:45:15.000Z</time>
      </trkpt>
      <trkpt lat="50.821415" lon="0.358085">
        <ele>0.709727</ele>
        <time>2026-07-26T07:45:19.000Z</time>
      </trkpt>
      <trkpt lat="50.821254" lon="0.357715">
        <ele>0.672423</ele>
        <time>2026-07-26T07:45:22.000Z</time>
      </trkpt>
      <trkpt lat="50.820852" lon="0.357128">
        <ele>0.598203</ele>
        <time>2026-07-26T07:45:28.000Z</time>
      </trkpt>
      <trkpt lat="50.820802" lon="0.356901">
        <ele>0.576219</ele>
        <time>2026-07-26T07:45:30.000Z</time>
      </trkpt>
      <trkpt lat="50.820648" lon="0.355983">
        <ele>0.563045</ele>
        <time>2026-07-26T07:45:37.000Z</time>
      </trkpt>
      <trkpt lat="50.820468" lon="0.355091">
        <ele>0.648248</ele>
        <time>2026-07-26T07:45:44.000Z</time>
      </trkpt>
      <trkpt lat="50.820393" lon="0.35455">
        <ele>0.69997</ele>
        <time>2026-07-26T07:45:48.000Z</time>
      </trkpt>
      <trkpt lat="50.820343" lon="0.353653">
        <ele>0.782738</ele>
        <time>2026-07-26T07:45:54.000Z</time>
      </trkpt>
      <trkpt lat="50.820073" lon="0.352274">
        <ele>0.883144</ele>
        <time>2026-07-26T07:46:04.000Z</time>
      </trkpt>
      <trkpt lat="50.819916" lon="0.351262">
        <ele>0.954582</ele>
        <time>2026-07-26T07:46:11.000Z</time>
      </trkpt>
      <trkpt lat="50.819849" lon="0.35077">
        <ele>0.993582</ele>
        <time>2026-07-26T07:46:15.000Z</time>
      </trkpt>
      <trkpt lat="50.819878" lon="0.350335">
        <ele>1.057632</ele>
        <time>2026-07-26T07:46:18.000Z</time>
      </trkpt>
      <trkpt lat="50.820225" lon="0.348216">
        <ele>1.385302</ele>
        <time>2026-07-26T07:46:33.000Z</time>
      </trkpt>
      <trkpt lat="50.820755" lon="0.346179">
        <ele>1.660783</ele>
        <time>2026-07-26T07:46:48.000Z</time>
      </trkpt>
      <trkpt lat="50.821585" lon="0.344041">
        <ele>2.077711</ele>
        <time>2026-07-26T07:47:06.000Z</time>
      </trkpt>
      <trkpt lat="50.821579" lon="0.343833">
        <ele>2.115639</ele>
        <time>2026-07-26T07:47:07.000Z</time>
      </trkpt>
      <trkpt lat="50.821539" lon="0.343385">
        <ele>2.201722</ele>
        <time>2026-07-26T07:47:10.000Z</time>
      </trkpt>
      <trkpt lat="50.821582" lon="0.343112">
        <ele>2.253076</ele>
        <time>2026-07-26T07:47:12.000Z</time>
      </trkpt>
      <trkpt lat="50.821619" lon="0.343034">
        <ele>2.269954</ele>
        <time>2026-07-26T07:47:13.000Z</time>
      </trkpt>
      <trkpt lat="50.821669" lon="0.342986">
        <ele>2.289277</ele>
        <time>2026-07-26T07:47:14.000Z</time>
      </trkpt>
      <trkpt lat="50.821773" lon="0.342674">
        <ele>2.29261</ele>
        <time>2026-07-26T07:47:16.000Z</time>
      </trkpt>
      <trkpt lat="50.821765" lon="0.34257">
        <ele>2.29367</ele>
        <time>2026-07-26T07:47:17.000Z</time>
      </trkpt>
      <trkpt lat="50.821779" lon="0.342384">
        <ele>2.295565</ele>
        <time>2026-07-26T07:47:18.000Z</time>
      </trkpt>
      <trkpt lat="50.821867" lon="0.342227">
        <ele>2.297453</ele>
        <time>2026-07-26T07:47:19.000Z</time>
      </trkpt>
      <trkpt lat="50.821907" lon="0.342173">
        <ele>2.298406</ele>
        <time>2026-07-26T07:47:20.000Z</time>
      </trkpt>
      <trkpt lat="50.821939" lon="0.34216">
        <ele>2.298832</ele>
        <time>2026-07-26T07:47:20.000Z</time>
      </trkpt>
      <trkpt lat="50.822095" lon="0.342146">
        <ele>2.301324</ele>
        <time>2026-07-26T07:47:22.000Z</time>
      </trkpt>
      <trkpt lat="50.822238" lon="0.342311">
        <ele>2.304004</ele>
        <time>2026-07-26T07:47:24.000Z</time>
      </trkpt>
      <trkpt lat="50.822271" lon="0.342375">
        <ele>2.304566</ele>
        <time>2026-07-26T07:47:25.000Z</time>
      </trkpt>
      <trkpt lat="50.822286" lon="0.342589">
        <ele>2.306692</ele>
        <time>2026-07-26T07:47:27.000Z</time>
      </trkpt>
      <trkpt lat="50.82224" lon="0.342795">
        <ele>2.308781</ele>
        <time>2026-07-26T07:47:29.000Z</time>
      </trkpt>
      <trkpt lat="50.822198" lon="0.342872">
        <ele>2.309845</ele>
        <time>2026-07-26T07:47:30.000Z</time>
      </trkpt>
      <trkpt lat="50.822084" lon="0.342978">
        <ele>2.311926</ele>
        <time>2026-07-26T07:47:31.000Z</time>
      </trkpt>
      <trkpt lat="50.822027" lon="0.342963">
        <ele>2.312751</ele>
        <time>2026-07-26T07:47:32.000Z</time>
      </trkpt>
      <trkpt lat="50.821946" lon="0.342961">
        <ele>2.314018</ele>
        <time>2026-07-26T07:47:33.000Z</time>
      </trkpt>
      <trkpt lat="50.82189" lon="0.342911">
        <ele>2.315052</ele>
        <time>2026-07-26T07:47:34.000Z</time>
      </trkpt>
      <trkpt lat="50.821662" lon="0.342978">
        <ele>2.28543</ele>
        <time>2026-07-26T07:47:37.000Z</time>
      </trkpt>
      <trkpt lat="50.821607" lon="0.343046">
        <ele>2.265356</ele>
        <time>2026-07-26T07:47:38.000Z</time>
      </trkpt>
      <trkpt lat="50.821581" lon="0.343121">
        <ele>2.248062</ele>
        <time>2026-07-26T07:47:39.000Z</time>
      </trkpt>
      <trkpt lat="50.821529" lon="0.34338">
        <ele>2.195508</ele>
        <time>2026-07-26T07:47:41.000Z</time>
      </trkpt>
      <trkpt lat="50.821584" lon="0.34384">
        <ele>2.107398</ele>
        <time>2026-07-26T07:47:44.000Z</time>
      </trkpt>
      <trkpt lat="50.82159" lon="0.344042">
        <ele>2.06858</ele>
        <time>2026-07-26T07:47:45.000Z</time>
      </trkpt>
      <trkpt lat="50.820754" lon="0.346176">
        <ele>1.658938</ele>
        <time>2026-07-26T07:48:03.000Z</time>
      </trkpt>
      <trkpt lat="50.820242" lon="0.348218">
        <ele>1.385368</ele>
        <time>2026-07-26T07:48:18.000Z</time>
      </trkpt>
      <trkpt lat="50.819882" lon="0.350335">
        <ele>1.05049</ele>
        <time>2026-07-26T07:48:33.000Z</time>
      </trkpt>
      <trkpt lat="50.819863" lon="0.350761">
        <ele>0.993484</ele>
        <time>2026-07-26T07:48:36.000Z</time>
      </trkpt>
      <trkpt lat="50.819901" lon="0.35125">
        <ele>0.959562</ele>
        <time>2026-07-26T07:48:39.000Z</time>
      </trkpt>
      <trkpt lat="50.820076" lon="0.352271">
        <ele>0.887709</ele>
        <time>2026-07-26T07:48:46.000Z</time>
      </trkpt>
      <trkpt lat="50.820345" lon="0.353648">
        <ele>0.782106</ele>
        <time>2026-07-26T07:48:56.000Z</time>
      </trkpt>
      <trkpt lat="50.820403" lon="0.354541">
        <ele>0.695781</ele>
        <time>2026-07-26T07:49:02.000Z</time>
      </trkpt>
      <trkpt lat="50.820467" lon="0.355092">
        <ele>0.641828</ele>
        <time>2026-07-26T07:49:06.000Z</time>
      </trkpt>
      <trkpt lat="50.820658" lon="0.355972">
        <ele>0.552959</ele>
        <time>2026-07-26T07:49:13.000Z</time>
      </trkpt>
      <trkpt lat="50.82079" lon="0.35689">
        <ele>0.588682</ele>
        <time>2026-07-26T07:49:20.000Z</time>
      </trkpt>
      <trkpt lat="50.820857" lon="0.357123">
        <ele>0.60849</ele>
        <time>2026-07-26T07:49:22.000Z</time>
      </trkpt>
      <trkpt lat="50.821267" lon="0.357713">
        <ele>0.675359</ele>
        <time>2026-07-26T07:49:28.000Z</time>
      </trkpt>
      <trkpt lat="50.821411" lon="0.35809">
        <ele>0.708984</ele>
        <time>2026-07-26T07:49:31.000Z</time>
      </trkpt>
      <trkpt lat="50.821535" lon="0.358629">
        <ele>0.753601</ele>
        <time>2026-07-26T07:49:35.000Z</time>
      </trkpt>
      <trkpt lat="50.821674" lon="0.358999">
        <ele>0.779735</ele>
        <time>2026-07-26T07:49:38.000Z</time>
      </trkpt>
      <trkpt lat="50.821985" lon="0.359727">
        <ele>0.834482</ele>
        <time>2026-07-26T07:49:44.000Z</time>
      </trkpt>
      <trkpt lat="50.822279" lon="0.360354">
        <ele>0.883105</ele>
        <time>2026-07-26T07:49:49.000Z</time>
      </trkpt>
      <trkpt lat="50.822642" lon="0.360917">
        <ele>0.92454</ele>
        <time>2026-07-26T07:49:55.000Z</time>
      </trkpt>
      <trkpt lat="50.823074" lon="0.361413">
        <ele>0.855832</ele>
        <time>2026-07-26T07:50:01.000Z</time>
      </trkpt>
      <trkpt lat="50.823586" lon="0.362364">
        <ele>0.756474</ele>
        <time>2026-07-26T07:50:10.000Z</time>
      </trkpt>
      <trkpt lat="50.823742" lon="0.362715">
        <ele>0.721333</ele>
        <time>2026-07-26T07:50:13.000Z</time>
      </trkpt>
      <trkpt lat="50.823833" lon="0.363004">
        <ele>0.694564</ele>
        <time>2026-07-26T07:50:15.000Z</time>
      </trkpt>
      <trkpt lat="50.82391" lon="0.364124">
        <ele>0.566734</ele>
        <time>2026-07-26T07:50:23.000Z</time>
      </trkpt>
      <trkpt lat="50.823959" lon="0.364715">
        <ele>0.499075</ele>
        <time>2026-07-26T07:50:27.000Z</time>
      </trkpt>
      <trkpt lat="50.824032" lon="0.365046">
        <ele>0.459361</ele>
        <time>2026-07-26T07:50:29.000Z</time>
      </trkpt>
      <trkpt lat="50.824097" lon="0.365297">
        <ele>0.426774</ele>
        <time>2026-07-26T07:50:31.000Z</time>
      </trkpt>
      <trkpt lat="50.824407" lon="0.366148">
        <ele>0.394974</ele>
        <time>2026-07-26T07:50:38.000Z</time>
      </trkpt>
      <trkpt lat="50.824546" lon="0.366582">
        <ele>0.412084</ele>
        <time>2026-07-26T07:50:41.000Z</time>
      </trkpt>
      <trkpt lat="50.824827" lon="0.367761">
        <ele>0.454987</ele>
        <time>2026-07-26T07:50:50.000Z</time>
      </trkpt>
      <trkpt lat="50.825721" lon="0.36972">
        <ele>0.260564</ele>
        <time>2026-07-26T07:51:07.000Z</time>
      </trkpt>
      <trkpt lat="50.826258" lon="0.37073">
        <ele>0.166543</ele>
        <time>2026-07-26T07:51:16.000Z</time>
      </trkpt>
      <trkpt lat="50.826323" lon="0.370932">
        <ele>0.182876</ele>
        <time>2026-07-26T07:51:18.000Z</time>
      </trkpt>
      <trkpt lat="50.826362" lon="0.371097">
        <ele>0.194521</ele>
        <time>2026-07-26T07:51:19.000Z</time>
      </trkpt>
      <trkpt lat="50.826358" lon="0.371297">
        <ele>0.207426</ele>
        <time>2026-07-26T07:51:20.000Z</time>
      </trkpt>
      <trkpt lat="50.826262" lon="0.371541">
        <ele>0.226862</ele>
        <time>2026-07-26T07:51:22.000Z</time>
      </trkpt>
      <trkpt lat="50.825909" lon="0.372404">
        <ele>0.29627</ele>
        <time>2026-07-26T07:51:29.000Z</time>
      </trkpt>
      <trkpt lat="50.825797" lon="0.372759">
        <ele>0.323726</ele>
        <time>2026-07-26T07:51:32.000Z</time>
      </trkpt>
      <trkpt lat="50.82566" lon="0.373429">
        <ele>0.484783</ele>
        <time>2026-07-26T07:51:37.000Z</time>
      </trkpt>
      <trkpt lat="50.825652" lon="0.373822">
        <ele>0.602275</ele>
        <time>2026-07-26T07:51:40.000Z</time>
      </trkpt>
      <trkpt lat="50.825879" lon="0.375443">
        <ele>1.099039</ele>
        <time>2026-07-26T07:51:52.000Z</time>
      </trkpt>
      <trkpt lat="50.825957" lon="0.376091">
        <ele>1.422795</ele>
        <time>2026-07-26T07:51:57.000Z</time>
      </trkpt>
      <trkpt lat="50.825954" lon="0.376845">
        <ele>1.926635</ele>
        <time>2026-07-26T07:52:02.000Z</time>
      </trkpt>
      <trkpt lat="50.825847" lon="0.378795">
        <ele>3.093088</ele>
        <time>2026-07-26T07:52:16.000Z</time>
      </trkpt>
      <trkpt lat="50.825794" lon="0.379904">
        <ele>3.153238</ele>
        <time>2026-07-26T07:52:24.000Z</time>
      </trkpt>
      <trkpt lat="50.825803" lon="0.380254">
        <ele>3.172782</ele>
        <time>2026-07-26T07:52:26.000Z</time>
      </trkpt>
      <trkpt lat="50.82604" lon="0.382799">
        <ele>2.739688</ele>
        <time>2026-07-26T07:52:44.000Z</time>
      </trkpt>
      <trkpt lat="50.826222" lon="0.384107">
        <ele>2.268806</ele>
        <time>2026-07-26T07:52:53.000Z</time>
      </trkpt>
      <trkpt lat="50.826784" lon="0.389107">
        <ele>0.96329</ele>
        <time>2026-07-26T07:53:29.000Z</time>
      </trkpt>
      <trkpt lat="50.826908" lon="0.389493">
        <ele>0.866521</ele>
        <time>2026-07-26T07:53:32.000Z</time>
      </trkpt>
      <trkpt lat="50.827085" lon="0.3898">
        <ele>0.805531</ele>
        <time>2026-07-26T07:53:35.000Z</time>
      </trkpt>
      <trkpt lat="50.827707" lon="0.390733">
        <ele>0.828172</ele>
        <time>2026-07-26T07:53:45.000Z</time>
      </trkpt>
      <trkpt lat="50.828958" lon="0.392544">
        <ele>0.804922</ele>
        <time>2026-07-26T07:54:04.000Z</time>
      </trkpt>
      <trkpt lat="50.829471" lon="0.393301">
        <ele>0.76678</ele>
        <time>2026-07-26T07:54:12.000Z</time>
      </trkpt>
      <trkpt lat="50.829479" lon="0.393327">
        <ele>0.765723</ele>
        <time>2026-07-26T07:54:12.000Z</time>
      </trkpt>
      <trkpt lat="50.82953" lon="0.393416">
        <ele>0.762074</ele>
        <time>2026-07-26T07:54:13.000Z</time>
      </trkpt>
      <trkpt lat="50.829618" lon="0.393576">
        <ele>0.754229</ele>
        <time>2026-07-26T07:54:14.000Z</time>
      </trkpt>
      <trkpt lat="50.829803" lon="0.393913">
        <ele>0.813716</ele>
        <time>2026-07-26T07:54:17.000Z</time>
      </trkpt>
      <trkpt lat="50.829949" lon="0.393943">
        <ele>0.846076</ele>
        <time>2026-07-26T07:54:19.000Z</time>
      </trkpt>
      <trkpt lat="50.830002" lon="0.393976">
        <ele>0.859216</ele>
        <time>2026-07-26T07:54:20.000Z</time>
      </trkpt>
      <trkpt lat="50.830957" lon="0.395448">
        <ele>1.171303</ele>
        <time>2026-07-26T07:54:35.000Z</time>
      </trkpt>
      <trkpt lat="50.831114" lon="0.39576">
        <ele>1.18448</ele>
        <time>2026-07-26T07:54:38.000Z</time>
      </trkpt>
      <trkpt lat="50.83125" lon="0.396111">
        <ele>1.195069</ele>
        <time>2026-07-26T07:54:41.000Z</time>
      </trkpt>
      <trkpt lat="50.831275" lon="0.396294">
        <ele>1.199921</ele>
        <time>2026-07-26T07:54:42.000Z</time>
      </trkpt>
      <trkpt lat="50.831252" lon="0.396513">
        <ele>1.205476</ele>
        <time>2026-07-26T07:54:44.000Z</time>
      </trkpt>
      <trkpt lat="50.83114" lon="0.397004">
        <ele>1.219289</ele>
        <time>2026-07-26T07:54:48.000Z</time>
      </trkpt>
      <trkpt lat="50.831097" lon="0.397743">
        <ele>1.239115</ele>
        <time>2026-07-26T07:54:53.000Z</time>
      </trkpt>
      <trkpt lat="50.830987" lon="0.399128">
        <ele>1.269672</ele>
        <time>2026-07-26T07:55:03.000Z</time>
      </trkpt>
      <trkpt lat="50.830946" lon="0.400074">
        <ele>1.289228</ele>
        <time>2026-07-26T07:55:10.000Z</time>
      </trkpt>
      <trkpt lat="50.830885" lon="0.401197">
        <ele>1.314823</ele>
        <time>2026-07-26T07:55:18.000Z</time>
      </trkpt>
      <trkpt lat="50.830882" lon="0.402101">
        <ele>1.344183</ele>
        <time>2026-07-26T07:55:24.000Z</time>
      </trkpt>
      <trkpt lat="50.830853" lon="0.402448">
        <ele>1.35533</ele>
        <time>2026-07-26T07:55:26.000Z</time>
      </trkpt>
      <trkpt lat="50.830758" lon="0.402791">
        <ele>1.367347</ele>
        <time>2026-07-26T07:55:29.000Z</time>
      </trkpt>
      <trkpt lat="50.830381" lon="0.403671">
        <ele>1.387779</ele>
        <time>2026-07-26T07:55:36.000Z</time>
      </trkpt>
      <trkpt lat="50.830315" lon="0.403898">
        <ele>1.352134</ele>
        <time>2026-07-26T07:55:38.000Z</time>
      </trkpt>
      <trkpt lat="50.830219" lon="0.404524">
        <ele>1.254091</ele>
        <time>2026-07-26T07:55:43.000Z</time>
      </trkpt>
      <trkpt lat="50.830051" lon="0.40489">
        <ele>1.189456</ele>
        <time>2026-07-26T07:55:46.000Z</time>
      </trkpt>
      <trkpt lat="50.829657" lon="0.405465">
        <ele>1.062814</ele>
        <time>2026-07-26T07:55:52.000Z</time>
      </trkpt>
      <trkpt lat="50.829321" lon="0.406115">
        <ele>0.982753</ele>
        <time>2026-07-26T07:55:58.000Z</time>
      </trkpt>
      <trkpt lat="50.829295" lon="0.406155">
        <ele>0.983957</ele>
        <time>2026-07-26T07:55:58.000Z</time>
      </trkpt>
      <trkpt lat="50.829067" lon="0.406783">
        <ele>0.998695</ele>
        <time>2026-07-26T07:56:03.000Z</time>
      </trkpt>
      <trkpt lat="50.829038" lon="0.406948">
        <ele>1.002108</ele>
        <time>2026-07-26T07:56:04.000Z</time>
      </trkpt>
      <trkpt lat="50.829022" lon="0.407129">
        <ele>1.005805</ele>
        <time>2026-07-26T07:56:05.000Z</time>
      </trkpt>
      <trkpt lat="50.829088" lon="0.407462">
        <ele>1.012906</ele>
        <time>2026-07-26T07:56:07.000Z</time>
      </trkpt>
      <trkpt lat="50.829482" lon="0.408841">
        <ele>1.113585</ele>
        <time>2026-07-26T07:56:18.000Z</time>
      </trkpt>
      <trkpt lat="50.830043" lon="0.410497">
        <ele>1.478877</ele>
        <time>2026-07-26T07:56:31.000Z</time>
      </trkpt>
      <trkpt lat="50.830087" lon="0.410693">
        <ele>1.518405</ele>
        <time>2026-07-26T07:56:32.000Z</time>
      </trkpt>
      <trkpt lat="50.830326" lon="0.41197">
        <ele>1.503657</ele>
        <time>2026-07-26T07:56:41.000Z</time>
      </trkpt>
      <trkpt lat="50.830319" lon="0.411964">
        <ele>1.503132</ele>
        <time>2026-07-26T07:56:41.000Z</time>
      </trkpt>
      <trkpt lat="50.830708" lon="0.413867">
        <ele>1.347912</ele>
        <time>2026-07-26T07:56:55.000Z</time>
      </trkpt>
      <trkpt lat="50.830987" lon="0.415338">
        <ele>1.391268</ele>
        <time>2026-07-26T07:57:06.000Z</time>
      </trkpt>
      <trkpt lat="50.831632" lon="0.418378">
        <ele>2.055907</ele>
        <time>2026-07-26T07:57:29.000Z</time>
      </trkpt>
      <trkpt lat="50.831814" lon="0.419426">
        <ele>2.494605</ele>
        <time>2026-07-26T07:57:37.000Z</time>
      </trkpt>
      <trkpt lat="50.832572" lon="0.423324">
        <ele>4.82276</ele>
        <time>2026-07-26T07:58:06.000Z</time>
      </trkpt>
      <trkpt lat="50.832845" lon="0.424558">
        <ele>5.337768</ele>
        <time>2026-07-26T07:58:15.000Z</time>
      </trkpt>
      <trkpt lat="50.833121" lon="0.426321">
        <ele>5.197638</ele>
        <time>2026-07-26T07:58:28.000Z</time>
      </trkpt>
      <trkpt lat="50.833271" lon="0.427139">
        <ele>5.123113</ele>
        <time>2026-07-26T07:58:34.000Z</time>
      </trkpt>
      <trkpt lat="50.833295" lon="0.427302">
        <ele>5.108367</ele>
        <time>2026-07-26T07:58:35.000Z</time>
      </trkpt>
      <trkpt lat="50.833291" lon="0.427487">
        <ele>5.167448</ele>
        <time>2026-07-26T07:58:36.000Z</time>
      </trkpt>
      <trkpt lat="50.832867" lon="0.427359">
        <ele>5.524928</ele>
        <time>2026-07-26T07:58:41.000Z</time>
      </trkpt>
      <trkpt lat="50.832829" lon="0.427344">
        <ele>5.567768</ele>
        <time>2026-07-26T07:58:41.000Z</time>
      </trkpt>
      <trkpt lat="50.83277" lon="0.427347">
        <ele>5.61286</ele>
        <time>2026-07-26T07:58:42.000Z</time>
      </trkpt>
      <trkpt lat="50.832715" lon="0.427427">
        <ele>5.664379</ele>
        <time>2026-07-26T07:58:43.000Z</time>
      </trkpt>
      <trkpt lat="50.832689" lon="0.427551">
        <ele>5.737719</ele>
        <time>2026-07-26T07:58:44.000Z</time>
      </trkpt>
      <trkpt lat="50.832722" lon="0.427697">
        <ele>5.818302</ele>
        <time>2026-07-26T07:58:45.000Z</time>
      </trkpt>
      <trkpt lat="50.832778" lon="0.427955">
        <ele>5.959715</ele>
        <time>2026-07-26T07:58:47.000Z</time>
      </trkpt>
      <trkpt lat="50.8329" lon="0.428606">
        <ele>6.311735</ele>
        <time>2026-07-26T07:58:52.000Z</time>
      </trkpt>
      <trkpt lat="50.832976" lon="0.428828">
        <ele>6.445053</ele>
        <time>2026-07-26T07:58:54.000Z</time>
      </trkpt>
      <trkpt lat="50.833348" lon="0.429308">
        <ele>6.982709</ele>
        <time>2026-07-26T07:58:59.000Z</time>
      </trkpt>
      <trkpt lat="50.833392" lon="0.429446">
        <ele>7.118668</ele>
        <time>2026-07-26T07:59:00.000Z</time>
      </trkpt>
      <trkpt lat="50.833558" lon="0.430278">
        <ele>7.857747</ele>
        <time>2026-07-26T07:59:06.000Z</time>
      </trkpt>
      <trkpt lat="50.833654" lon="0.430717">
        <ele>8.247048</ele>
        <time>2026-07-26T07:59:09.000Z</time>
      </trkpt>
      <trkpt lat="50.83369" lon="0.430928">
        <ele>8.419922</ele>
        <time>2026-07-26T07:59:11.000Z</time>
      </trkpt>
      <trkpt lat="50.833721" lon="0.43106">
        <ele>8.545302</ele>
        <time>2026-07-26T07:59:12.000Z</time>
      </trkpt>
      <trkpt lat="50.83399" lon="0.432427">
        <ele>9.306546</ele>
        <time>2026-07-26T07:59:22.000Z</time>
      </trkpt>
      <trkpt lat="50.834057" lon="0.432818">
        <ele>9.446977</ele>
        <time>2026-07-26T07:59:25.000Z</time>
      </trkpt>
      <trkpt lat="50.835107" lon="0.438104">
        <ele>10.673801</ele>
        <time>2026-07-26T08:00:04.000Z</time>
      </trkpt>
      <trkpt lat="50.83624" lon="0.443917">
        <ele>10.499562</ele>
        <time>2026-07-26T08:00:47.000Z</time>
      </trkpt>
      <trkpt lat="50.836415" lon="0.444769">
        <ele>10.469476</ele>
        <time>2026-07-26T08:00:53.000Z</time>
      </trkpt>
      <trkpt lat="50.836492" lon="0.445155">
        <ele>10.455688</ele>
        <time>2026-07-26T08:00:56.000Z</time>
      </trkpt>
      <trkpt lat="50.836089" lon="0.445183">
        <ele>10.668724</ele>
        <time>2026-07-26T08:01:00.000Z</time>
      </trkpt>
      <trkpt lat="50.83586" lon="0.445318">
        <ele>10.798506</ele>
        <time>2026-07-26T08:01:03.000Z</time>
      </trkpt>
      <trkpt lat="50.835713" lon="0.44554">
        <ele>10.90709</ele>
        <time>2026-07-26T08:01:05.000Z</time>
      </trkpt>
      <trkpt lat="50.835604" lon="0.445744">
        <ele>11.00351</ele>
        <time>2026-07-26T08:01:07.000Z</time>
      </trkpt>
      <trkpt lat="50.835431" lon="0.446211">
        <ele>11.192328</ele>
        <time>2026-07-26T08:01:11.000Z</time>
      </trkpt>
      <trkpt lat="50.835344" lon="0.446683">
        <ele>11.361502</ele>
        <time>2026-07-26T08:01:14.000Z</time>
      </trkpt>
      <trkpt lat="50.835282" lon="0.447201">
        <ele>11.529793</ele>
        <time>2026-07-26T08:01:18.000Z</time>
      </trkpt>
      <trkpt lat="50.835296" lon="0.447768">
        <ele>11.698986</ele>
        <time>2026-07-26T08:01:22.000Z</time>
      </trkpt>
      <trkpt lat="50.835337" lon="0.448397">
        <ele>11.882638</ele>
        <time>2026-07-26T08:01:26.000Z</time>
      </trkpt>
      <trkpt lat="50.835608" lon="0.450615">
        <ele>11.876195</ele>
        <time>2026-07-26T08:01:42.000Z</time>
      </trkpt>
      <trkpt lat="50.835664" lon="0.45131">
        <ele>11.563635</ele>
        <time>2026-07-26T08:01:47.000Z</time>
      </trkpt>
      <trkpt lat="50.835679" lon="0.452188">
        <ele>11.174633</ele>
        <time>2026-07-26T08:01:53.000Z</time>
      </trkpt>
      <trkpt lat="50.835663" lon="0.453514">
        <ele>9.920229</ele>
        <time>2026-07-26T08:02:02.000Z</time>
      </trkpt>
      <trkpt lat="50.835735" lon="0.454886">
        <ele>8.337872</ele>
        <time>2026-07-26T08:02:12.000Z</time>
      </trkpt>
      <trkpt lat="50.835737" lon="0.454891">
        <ele>8.333996</ele>
        <time>2026-07-26T08:02:12.000Z</time>
      </trkpt>
      <trkpt lat="50.835726" lon="0.455476">
        <ele>7.659462</ele>
        <time>2026-07-26T08:02:16.000Z</time>
      </trkpt>
      <trkpt lat="50.835731" lon="0.455584">
        <ele>7.525281</ele>
        <time>2026-07-26T08:02:17.000Z</time>
      </trkpt>
      <trkpt lat="50.835843" lon="0.455722">
        <ele>7.231908</ele>
        <time>2026-07-26T08:02:19.000Z</time>
      </trkpt>
      <trkpt lat="50.835709" lon="0.456189">
        <ele>6.574963</ele>
        <time>2026-07-26T08:02:23.000Z</time>
      </trkpt>
      <trkpt lat="50.835694" lon="0.456421">
        <ele>6.285647</ele>
        <time>2026-07-26T08:02:25.000Z</time>
      </trkpt>
      <trkpt lat="50.835695" lon="0.456643">
        <ele>5.988349</ele>
        <time>2026-07-26T08:02:27.000Z</time>
      </trkpt>
      <trkpt lat="50.835737" lon="0.457145">
        <ele>5.335256</ele>
        <time>2026-07-26T08:02:31.000Z</time>
      </trkpt>
      <trkpt lat="50.835873" lon="0.45864">
        <ele>3.907053</ele>
        <time>2026-07-26T08:02:42.000Z</time>
      </trkpt>
      <trkpt lat="50.835904" lon="0.458854">
        <ele>3.827367</ele>
        <time>2026-07-26T08:02:44.000Z</time>
      </trkpt>
      <trkpt lat="50.835987" lon="0.459734">
        <ele>3.507041</ele>
        <time>2026-07-26T08:02:50.000Z</time>
      </trkpt>
      <trkpt lat="50.836105" lon="0.460954">
        <ele>3.078211</ele>
        <time>2026-07-26T08:02:59.000Z</time>
      </trkpt>
      <trkpt lat="50.836232" lon="0.46245">
        <ele>3.109608</ele>
        <time>2026-07-26T08:03:10.000Z</time>
      </trkpt>
      <trkpt lat="50.836286" lon="0.463018">
        <ele>3.121644</ele>
        <time>2026-07-26T08:03:14.000Z</time>
      </trkpt>
      <trkpt lat="50.836378" lon="0.463882">
        <ele>3.117005</ele>
        <time>2026-07-26T08:03:20.000Z</time>
      </trkpt>
      <trkpt lat="50.836539" lon="0.465677">
        <ele>2.886027</ele>
        <time>2026-07-26T08:03:33.000Z</time>
      </trkpt>
      <trkpt lat="50.836564" lon="0.465819">
        <ele>2.865968</ele>
        <time>2026-07-26T08:03:34.000Z</time>
      </trkpt>
      <trkpt lat="50.836599" lon="0.466196">
        <ele>2.818247</ele>
        <time>2026-07-26T08:03:37.000Z</time>
      </trkpt>
      <trkpt lat="50.836607" lon="0.466339">
        <ele>2.800462</ele>
        <time>2026-07-26T08:03:38.000Z</time>
      </trkpt>
      <trkpt lat="50.836762" lon="0.467915">
        <ele>3.572076</ele>
        <time>2026-07-26T08:03:49.000Z</time>
      </trkpt>
      <trkpt lat="50.836797" lon="0.468358">
        <ele>3.829126</ele>
        <time>2026-07-26T08:03:52.000Z</time>
      </trkpt>
      <trkpt lat="50.836863" lon="0.468813">
        <ele>4.093684</ele>
        <time>2026-07-26T08:03:55.000Z</time>
      </trkpt>
      <trkpt lat="50.837052" lon="0.469338">
        <ele>4.495219</ele>
        <time>2026-07-26T08:03:59.000Z</time>
      </trkpt>
      <trkpt lat="50.837271" lon="0.469773">
        <ele>5.33746</ele>
        <time>2026-07-26T08:04:03.000Z</time>
      </trkpt>
      <trkpt lat="50.837497" lon="0.470056">
        <ele>6.041538</ele>
        <time>2026-07-26T08:04:06.000Z</time>
      </trkpt>
      <trkpt lat="50.837606" lon="0.470151">
        <ele>6.357239</ele>
        <time>2026-07-26T08:04:07.000Z</time>
      </trkpt>
      <trkpt lat="50.837821" lon="0.47018">
        <ele>6.860409</ele>
        <time>2026-07-26T08:04:09.000Z</time>
      </trkpt>
      <trkpt lat="50.837845" lon="0.470151">
        <ele>6.907215</ele>
        <time>2026-07-26T08:04:09.000Z</time>
      </trkpt>
      <trkpt lat="50.837903" lon="0.470117">
        <ele>7.076643</ele>
        <time>2026-07-26T08:04:10.000Z</time>
      </trkpt>
      <trkpt lat="50.837926" lon="0.470137">
        <ele>7.124788</ele>
        <time>2026-07-26T08:04:10.000Z</time>
      </trkpt>
      <trkpt lat="50.837961" lon="0.470211">
        <ele>7.273362</ele>
        <time>2026-07-26T08:04:11.000Z</time>
      </trkpt>
      <trkpt lat="50.83798" lon="0.470297">
        <ele>7.422533</ele>
        <time>2026-07-26T08:04:12.000Z</time>
      </trkpt>
      <trkpt lat="50.837922" lon="0.470421">
        <ele>7.631215</ele>
        <time>2026-07-26T08:04:13.000Z</time>
      </trkpt>
      <trkpt lat="50.837881" lon="0.470687">
        <ele>8.079361</ele>
        <time>2026-07-26T08:04:15.000Z</time>
      </trkpt>
      <trkpt lat="50.837869" lon="0.470717">
        <ele>8.125409</ele>
        <time>2026-07-26T08:04:15.000Z</time>
      </trkpt>
      <trkpt lat="50.83787" lon="0.471094">
        <ele>8.681926</ele>
        <time>2026-07-26T08:04:18.000Z</time>
      </trkpt>
      <trkpt lat="50.837864" lon="0.471224">
        <ele>8.8530817226</ele>
        <time>2026-07-26T08:04:19.000Z</time>
      </trkpt>
      <trkpt lat="50.83786" lon="0.471615">
        <ele>9.36656356831</ele>
        <time>2026-07-26T08:04:22.000Z</time>
      </trkpt>
      <trkpt lat="50.837865" lon="0.471739">
        <ele>9.52971711574</ele>
        <time>2026-07-26T08:04:23.000Z</time>
      </trkpt>
      <trkpt lat="50.837866" lon="0.472288">
        <ele>10.2506012683</ele>
        <time>2026-07-26T08:04:27.000Z</time>
      </trkpt>
      <trkpt lat="50.837864" lon="0.472486">
        <ele>10.5106244505</ele>
        <time>2026-07-26T08:04:28.000Z</time>
      </trkpt>
      <trkpt lat="50.837859" lon="0.472624">
        <ele>10.6921275504</ele>
        <time>2026-07-26T08:04:29.000Z</time>
      </trkpt>
      <trkpt lat="50.837847" lon="0.47315">
        <ele>11.3832585721</ele>
        <time>2026-07-26T08:04:33.000Z</time>
      </trkpt>
      <trkpt lat="50.837813" lon="0.473535">
        <ele>11.8937139589</ele>
        <time>2026-07-26T08:04:36.000Z</time>
      </trkpt>
      <trkpt lat="50.837798" lon="0.473775">
        <ele>12.2103932467</ele>
        <time>2026-07-26T08:04:38.000Z</time>
      </trkpt>
      <trkpt lat="50.83778" lon="0.474078">
        <ele>12.6100137161</ele>
        <time>2026-07-26T08:04:40.000Z</time>
      </trkpt>
      <trkpt lat="50.837789" lon="0.474209">
        <ele>12.7830424542</ele>
        <time>2026-07-26T08:04:41.000Z</time>
      </trkpt>
      <trkpt lat="50.837807" lon="0.474517">
        <ele>13.1891998673</ele>
        <time>2026-07-26T08:04:43.000Z</time>
      </trkpt>
    </trkseg>
  </trk>
</gpx>

<!--
Performance optimized by W3 Total Cache. Learn more: https://www.boldgrid.com/w3-total-cache/?utm_source=w3tc&utm_medium=footer_comment&utm_campaign=free_plugin

Page Caching using Disk: Enhanced{w3tc_pagecache_reject_reason} 

Served from: www.aquabike.world @ 2026-05-10 18:44:56 by W3 Total Cache
-->